createdAt,value
2024-01-01T00:00:22.772Z,10.55
2024-01-01T00:05:24.427Z,10.65
2024-01-01T00:10:26.096Z,10.46
2024-01-01T00:15:27.614Z,10.71
2024-01-01T00:20:29.086Z,10.75
2024-01-01T00:25:36.924Z,10.70
2024-01-01T00:30:39.334Z,10.51
2024-01-01T00:35:40.929Z,10.71
2024-01-01T00:40:42.534Z,10.72
2024-01-01T00:45:49.511Z,10.63
2024-01-01T00:50:51.958Z,10.54
2024-01-01T00:55:53.567Z,10.56
2024-01-01T01:00:56.068Z,10.54
2024-01-01T01:06:02.863Z,10.63
2024-01-01T01:11:09.929Z,10.85
2024-01-01T01:16:11.844Z,10.52
2024-01-01T01:21:14.240Z,10.67
2024-01-01T01:26:15.755Z,10.48
2024-01-01T01:31:17.273Z,10.63
2024-01-01T01:36:18.991Z,10.74
2024-01-01T01:41:21.441Z,10.46
2024-01-01T01:46:23.501Z,10.36
2024-01-01T01:51:26.800Z,9.95
2024-01-01T01:56:29.112Z,9.84
2024-01-01T02:01:31.129Z,9.20
2024-01-01T02:06:34.140Z,9.27
2024-01-01T02:11:35.884Z,9.20
2024-01-01T02:16:38.045Z,9.20
2024-01-01T02:21:39.544Z,9.31
2024-01-01T02:26:41.030Z,9.29
2024-01-01T02:31:42.536Z,9.23
2024-01-01T02:36:44.013Z,9.30
2024-01-01T02:41:45.547Z,9.19
2024-01-01T02:46:48.014Z,9.10
2024-01-01T02:51:49.510Z,9.07
2024-01-01T02:56:50.971Z,8.94
2024-01-01T03:01:52.584Z,9.05
2024-01-01T03:06:54.071Z,9.30
2024-01-01T03:11:56.177Z,9.17
2024-01-01T03:16:57.860Z,9.51
2024-01-01T03:21:59.340Z,9.56
2024-01-01T03:27:00.824Z,9.55
2024-01-01T03:32:02.339Z,9.29
2024-01-01T03:37:04.036Z,9.39
2024-01-01T03:42:05.530Z,9.44
2024-01-01T03:47:07.552Z,9.20
2024-01-01T03:52:09.098Z,9.51
2024-01-01T03:57:10.887Z,9.40
2024-01-01T04:02:13.507Z,9.32
2024-01-01T04:07:17.761Z,9.51
2024-01-01T04:12:19.229Z,9.38
2024-01-01T04:17:20.733Z,9.46
2024-01-01T04:22:25.991Z,9.52
2024-01-01T04:27:28.097Z,9.47
2024-01-01T04:32:29.632Z,9.45
2024-01-01T04:37:31.099Z,9.43
2024-01-01T04:42:32.629Z,9.49
2024-01-01T04:47:34.190Z,9.60
2024-01-01T04:52:35.708Z,9.55
2024-01-01T04:57:37.362Z,9.63
2024-01-01T05:02:38.814Z,9.56
2024-01-01T05:07:42.788Z,9.70
2024-01-01T05:12:45.129Z,9.72
2024-01-01T05:17:46.838Z,9.82
2024-01-01T05:22:48.388Z,9.72
2024-01-01T05:27:49.999Z,9.75
2024-01-01T05:32:51.573Z,9.69
2024-01-01T05:37:53.402Z,9.71
2024-01-01T05:42:54.861Z,9.75
2024-01-01T05:47:58.860Z,9.69
2024-01-01T05:53:00.720Z,9.73
2024-01-01T05:58:02.512Z,9.69
2024-01-01T06:03:05.327Z,9.60
2024-01-01T06:08:10.080Z,9.58
2024-01-01T06:13:11.664Z,9.51
2024-01-01T06:18:13.839Z,9.49
2024-01-01T06:23:17.169Z,9.36
2024-01-01T06:28:19.466Z,9.20
2024-01-01T06:33:21.161Z,8.98
2024-01-01T06:38:22.767Z,8.94
2024-01-01T06:43:24.553Z,8.97
2024-01-01T06:48:26.243Z,8.80
2024-01-01T06:53:27.833Z,8.93
2024-01-01T06:58:29.295Z,9.08
2024-01-01T07:03:31.025Z,9.23
2024-01-01T07:08:33.682Z,8.86
2024-01-01T07:13:36.769Z,8.87
2024-01-01T07:18:38.352Z,8.97
2024-01-01T07:23:39.834Z,8.95
2024-01-01T07:28:42.423Z,8.96
2024-01-01T07:33:43.938Z,9.05
2024-01-01T07:38:45.389Z,8.97
2024-01-01T07:43:47.006Z,8.98
2024-01-01T07:48:48.618Z,9.04
2024-01-01T07:53:51.202Z,8.90
2024-01-01T07:58:54.342Z,8.80
2024-01-01T08:03:55.868Z,8.79
2024-01-01T08:08:57.485Z,8.84
2024-01-01T08:13:59.339Z,8.68
2024-01-01T08:19:01.222Z,8.86
2024-01-01T08:24:04.984Z,8.68
2024-01-01T08:29:06.853Z,8.99
2024-01-01T08:34:08.423Z,8.77
2024-01-01T08:39:10.950Z,9.10
2024-01-01T08:44:12.852Z,9.04
2024-01-01T08:49:14.535Z,9.11
2024-01-01T08:54:17.318Z,9.14
2024-01-01T08:59:19.035Z,9.05
2024-01-01T09:04:20.683Z,9.24
2024-01-01T09:09:23.341Z,9.18
2024-01-01T09:14:26.624Z,9.11
2024-01-01T09:19:28.280Z,9.06
2024-01-01T09:24:29.886Z,9.19
2024-01-01T09:29:31.373Z,9.39
2024-01-01T09:34:32.928Z,9.26
2024-01-01T09:39:34.427Z,9.51
2024-01-01T09:44:38.096Z,9.38
2024-01-01T09:49:40.495Z,9.57
2024-01-01T09:54:42.677Z,9.49
2024-01-01T09:59:44.160Z,9.49
2024-01-01T10:04:45.707Z,9.56
2024-01-01T10:09:49.270Z,9.44
2024-01-01T10:14:51.859Z,9.47
2024-01-01T10:19:57.321Z,9.58
2024-01-01T10:25:13.328Z,9.53
2024-01-01T10:30:17.345Z,9.54
2024-01-01T10:35:19.017Z,9.68
2024-01-01T10:40:21.601Z,9.77
2024-01-01T10:45:25.713Z,9.69
2024-01-01T10:50:36.918Z,9.91
2024-01-01T10:55:55.631Z,9.83
2024-01-01T11:01:16.200Z,9.91
2024-01-01T11:06:29.221Z,10.22
2024-01-01T11:11:33.687Z,9.83
2024-01-01T11:17:04.088Z,9.93
2024-01-01T11:22:21.368Z,10.05
2024-01-01T11:27:26.439Z,10.03
2024-01-01T11:32:28.487Z,10.12
2024-01-01T11:37:30.098Z,10.09
2024-01-01T11:42:31.659Z,9.96
2024-01-01T11:47:33.913Z,10.04
2024-01-01T11:52:35.452Z,10.16
2024-01-01T11:57:37.258Z,10.08
2024-01-01T12:02:39.169Z,10.18
2024-01-01T12:07:40.657Z,10.11
2024-01-01T12:12:45.212Z,9.89
2024-01-01T12:17:50.905Z,10.08
2024-01-01T12:22:54.524Z,10.23
2024-01-01T12:28:07.370Z,10.40
2024-01-01T12:33:11.146Z,10.59
2024-01-01T12:38:14.097Z,10.50
2024-01-01T12:43:15.590Z,10.37
2024-01-01T12:48:17.179Z,10.23
2024-01-01T12:53:21.060Z,10.40
2024-01-01T12:58:22.574Z,10.38
2024-01-01T13:03:24.099Z,10.40
2024-01-01T13:08:25.733Z,10.12
2024-01-01T13:13:29.605Z,10.10
2024-01-01T13:18:32.003Z,10.22
2024-01-01T13:23:33.967Z,10.29
2024-01-01T13:28:35.692Z,10.31
2024-01-01T13:33:37.284Z,10.52
2024-01-01T13:38:40.518Z,10.32
2024-01-01T13:43:42.072Z,10.38
2024-01-01T13:48:44.492Z,10.48
2024-01-01T13:53:46.392Z,10.34
2024-01-01T13:58:50.507Z,10.20
2024-01-01T14:03:52.313Z,10.07
2024-01-01T14:08:53.826Z,10.10
2024-01-01T14:13:55.453Z,10.36
2024-01-01T14:18:56.990Z,10.25
2024-01-01T14:23:58.518Z,10.28
2024-01-01T14:29:02.460Z,10.36
2024-01-01T14:34:05.756Z,10.13
2024-01-01T14:39:08.437Z,10.07
2024-01-01T14:44:10.010Z,10.05
2024-01-01T14:49:11.851Z,10.04
2024-01-01T14:54:13.381Z,9.91
2024-01-01T14:59:15.143Z,9.81
2024-01-01T15:04:19.076Z,9.65
2024-01-01T15:09:20.596Z,9.71
2024-01-01T15:14:22.125Z,9.73
2024-01-01T15:19:23.635Z,9.68
2024-01-01T15:24:25.180Z,9.48
2024-01-01T15:29:26.738Z,9.38
2024-01-01T15:34:30.937Z,9.55
2024-01-01T15:39:32.493Z,9.58
2024-01-01T15:44:34.053Z,9.42
2024-01-01T15:49:36.009Z,9.36
2024-01-01T15:54:40.855Z,9.49
2024-01-01T15:59:43.457Z,9.70
2024-01-01T16:04:45.023Z,9.47
2024-01-01T16:09:46.574Z,9.40
2024-01-01T16:14:48.126Z,9.47
2024-01-01T16:19:49.850Z,9.51
2024-01-01T16:24:51.465Z,9.62
2024-01-01T16:29:52.935Z,9.63
2024-01-01T16:34:56.660Z,9.65
2024-01-01T16:39:58.167Z,9.36
2024-01-01T16:44:59.682Z,9.58
2024-01-01T16:50:02.780Z,9.52
2024-01-01T16:55:04.729Z,9.54
2024-01-01T17:00:07.031Z,9.60
2024-01-01T17:05:09.174Z,9.50
2024-01-01T17:10:10.827Z,9.72
2024-01-01T17:15:12.437Z,9.51
2024-01-01T17:20:14.122Z,9.54
2024-01-01T17:25:16.794Z,9.49
2024-01-01T17:30:18.394Z,9.67
2024-01-01T17:35:20.667Z,9.61
2024-01-01T17:40:22.192Z,9.70
2024-01-01T17:45:23.655Z,9.90
2024-01-01T17:50:26.595Z,9.84
2024-01-01T17:55:28.220Z,9.80
2024-01-01T18:00:29.682Z,9.89
2024-01-01T18:05:31.451Z,9.90
2024-01-01T18:10:32.929Z,9.85
2024-01-01T18:15:34.395Z,9.89
2024-01-01T18:20:36.030Z,9.83
2024-01-01T18:25:37.666Z,9.85
2024-01-01T18:30:39.207Z,9.89
2024-01-01T18:35:40.845Z,9.79
2024-01-01T18:40:43.618Z,9.90
2024-01-01T18:45:45.133Z,9.76
2024-01-01T18:50:46.783Z,9.88
2024-01-01T18:55:48.452Z,9.91
2024-01-01T19:00:50.493Z,9.91
2024-01-01T19:05:53.935Z,9.89
2024-01-01T19:10:55.612Z,10.09
2024-01-01T19:15:59.322Z,9.95
2024-01-01T19:21:01.397Z,9.91
2024-01-01T19:26:03.679Z,9.78
2024-01-01T19:31:05.400Z,9.81
2024-01-01T19:36:14.242Z,9.83
2024-01-01T19:41:15.810Z,9.73
2024-01-01T19:46:20.878Z,9.68
2024-01-01T19:51:22.346Z,9.89
2024-01-01T19:56:28.012Z,9.93
2024-01-01T20:01:29.576Z,9.95
2024-01-01T20:06:31.059Z,9.90
2024-01-01T20:11:32.562Z,9.98
2024-01-01T20:16:34.092Z,10.00
2024-01-01T20:21:35.537Z,9.76
2024-01-01T20:26:38.418Z,9.58
2024-01-01T20:31:40.176Z,9.55
2024-01-01T20:36:41.742Z,9.37
2024-01-01T20:41:44.909Z,9.47
2024-01-01T20:46:46.430Z,9.39
2024-01-01T20:51:50.312Z,9.40
2024-01-01T20:56:51.810Z,9.32
2024-01-01T21:01:53.334Z,9.11
2024-01-01T21:06:54.848Z,9.17
2024-01-01T21:11:56.337Z,9.18
2024-01-01T21:16:57.837Z,9.23
2024-01-01T21:21:59.321Z,9.17
2024-01-01T21:27:00.811Z,9.14
2024-01-01T21:32:03.233Z,9.18
2024-01-01T21:37:05.129Z,9.08
2024-01-01T21:42:06.751Z,9.19
2024-01-01T21:47:10.645Z,9.15
2024-01-01T21:52:12.140Z,9.19
2024-01-01T21:57:13.622Z,9.17
2024-01-01T22:02:15.153Z,9.18
2024-01-01T22:07:16.716Z,9.27
2024-01-01T22:12:19.389Z,9.26
2024-01-01T22:17:20.960Z,9.20
2024-01-01T22:22:22.466Z,9.26
2024-01-01T22:27:24.339Z,9.18
2024-01-01T22:32:25.868Z,9.30
2024-01-01T22:37:27.434Z,9.24
2024-01-01T22:42:29.108Z,9.27
2024-01-01T22:47:31.331Z,9.24
2024-01-01T22:52:32.944Z,9.28
2024-01-01T22:57:34.496Z,9.23
2024-01-01T23:02:35.998Z,9.08
2024-01-01T23:07:37.484Z,9.22
2024-01-01T23:12:39.317Z,9.26
2024-01-01T23:17:40.952Z,9.26
2024-01-01T23:22:42.533Z,9.24
2024-01-01T23:27:44.222Z,9.23
2024-01-01T23:32:45.997Z,9.15
2024-01-01T23:37:47.574Z,9.22
2024-01-01T23:42:49.044Z,9.26
2024-01-01T23:47:51.389Z,9.23
2024-01-01T23:52:52.971Z,9.36
2024-01-01T23:57:54.734Z,9.20
